Time;durP1;ratioP1;P1;durP2;ratioP2;P2;SDS_P1;SDS_P2;PMS_P1;PMS_P2;Temp;Humidity;BMP_temperature;BMP_pressure;BME280_temperature;BME280_humidity;BME280_pressure;Samples;Min_cycle;Max_cycle;Signal;HPM_P1;HPM_P2
2021/03/22 00:02:18;;;;;;;25.00;3.75;;;7.30;93.70;;;;;;5049052;28;20118;-79
2021/03/22 00:04:44;;;;;;;27.27;3.80;;;7.40;93.80;;;;;;5049010;28;20041;-81
2021/03/22 00:07:09;;;;;;;21.38;3.50;;;7.40;93.70;;;;;;5049770;28;20049;-81
2021/03/22 00:09:35;;;;;;;24.50;3.30;;;7.60;93.70;;;;;;5049138;28;20102;-81
2021/03/22 00:12:00;;;;;;;24.45;3.33;;;7.50;93.60;;;;;;5050798;28;20024;-81
2021/03/22 00:14:26;;;;;;;27.95;3.85;;;7.30;93.70;;;;;;5049737;28;20721;-80
2021/03/22 00:16:52;;;;;;;24.60;3.03;;;7.30;93.80;;;;;;5049599;28;20033;-82
2021/03/22 00:19:17;;;;;;;32.58;4.13;;;7.30;93.90;;;;;;5048272;28;20462;-81
2021/03/22 00:21:43;;;;;;;26.58;4.15;;;7.30;94.00;;;;;;5048419;28;20123;-81
2021/03/22 00:24:09;;;;;;;22.30;3.83;;;7.20;94.20;;;;;;5050112;28;20040;-81
2021/03/22 00:26:35;;;;;;;27.80;3.92;;;7.20;94.30;;;;;;5049631;28;20151;-82
2021/03/22 00:29:03;;;;;;;36.05;3.72;;;7.20;94.20;;;;;;5049656;28;20048;-81
2021/03/22 00:31:29;;;;;;;;;;;7.30;94.30;;;;;;5049826;28;20036;-80
2021/03/22 00:33:54;;;;;;;35.22;4.30;;;7.40;94.20;;;;;;5047637;28;19917;-78
2021/03/22 00:36:20;;;;;;;22.92;3.40;;;7.40;94.10;;;;;;5049614;28;20047;-79
2021/03/22 00:38:46;;;;;;;20.08;3.17;;;7.40;94.20;;;;;;5050971;28;20040;-80
2021/03/22 00:41:12;;;;;;;18.40;3.08;;;7.50;94.20;;;;;;5047946;28;20043;-79
2021/03/22 00:43:37;;;;;;;22.90;3.67;;;7.40;94.10;;;;;;5048675;28;20107;-79
2021/03/22 00:46:04;;;;;;;33.40;4.07;;;7.50;94.20;;;;;;5048062;28;20169;-79
2021/03/22 00:48:35;;;;;;;20.25;3.05;;;7.40;94.20;;;;;;5049379;28;20082;-79
2021/03/22 00:51:04;;;;;;;31.45;4.20;;;7.50;94.20;;;;;;5051499;28;20031;-79
2021/03/22 00:53:30;;;;;;;33.13;3.85;;;7.50;94.10;;;;;;5049016;28;20045;-79
2021/03/22 00:55:55;;;;;;;23.65;4.32;;;7.50;94.00;;;;;;5049465;28;20041;-78
2021/03/22 00:58:21;;;;;;;35.03;3.72;;;7.60;94.10;;;;;;5049126;28;20029;-79
2021/03/22 01:00:53;;;;;;;33.33;3.97;;;7.60;94.10;;;;;;5049141;28;20043;-78
2021/03/22 01:03:23;;;;;;;31.05;4.20;;;7.60;94.20;;;;;;5048767;28;20096;-79
2021/03/22 01:05:49;;;;;;;29.58;3.60;;;7.50;94.20;;;;;;5050655;28;20055;-78
2021/03/22 01:08:17;;;;;;;19.70;3.78;;;7.60;94.20;;;;;;5047829;28;20041;-77
2021/03/22 01:10:46;;;;;;;28.52;4.18;;;7.50;94.20;;;;;;5047887;28;20542;-77
2021/03/22 01:13:25;;;;;;;22.60;4.70;;;7.60;94.30;;;;;;5048153;28;20340;-76
2021/03/22 01:15:51;;;;;;;44.67;4.20;;;7.40;94.30;;;;;;5048931;28;20068;-77
2021/03/22 01:18:21;;;;;;;28.65;3.45;;;7.50;94.40;;;;;;5048995;28;20063;-78
2021/03/22 01:20:55;;;;;;;30.15;3.83;;;7.40;94.50;;;;;;5049652;28;20411;-78
2021/03/22 01:23:21;;;;;;;20.13;4.00;;;7.40;94.50;;;;;;5048909;28;20040;-79
2021/03/22 01:25:46;;;;;;;26.85;3.67;;;7.50;94.50;;;;;;5047691;28;20041;-78
2021/03/22 01:28:15;;;;;;;26.75;3.28;;;7.60;94.50;;;;;;5048092;28;20026;-79
2021/03/22 01:30:49;;;;;;;26.70;3.45;;;7.60;94.30;;;;;;5047836;28;20052;-79
2021/03/22 01:33:17;;;;;;;33.47;3.85;;;7.50;94.40;;;;;;5048051;28;20033;-79
2021/03/22 01:35:44;;;;;;;26.63;3.75;;;7.60;94.40;;;;;;5050656;28;20021;-79
2021/03/22 01:38:09;;;;;;;28.92;3.10;;;7.70;94.60;;;;;;5048970;28;20040;-77
2021/03/22 01:41:01;;;;;;;29.77;3.45;;;7.70;94.20;;;;;;5048526;28;20045;-79
2021/03/22 01:43:49;;;;;;;28.05;3.88;;;7.70;94.10;;;;;;5048886;28;20060;-77
2021/03/22 01:46:15;;;;;;;34.00;3.75;;;7.70;94.00;;;;;;5048791;28;20041;-78
2021/03/22 01:48:41;;;;;;;23.30;3.80;;;7.70;94.10;;;;;;5047531;28;20033;-79
2021/03/22 01:51:06;;;;;;;33.65;4.10;;;7.60;94.00;;;;;;5050194;28;20513;-79
2021/03/22 01:53:34;;;;;;;17.98;3.25;;;7.50;94.20;;;;;;5049058;28;20044;-78
2021/03/22 01:56:29;;;;;;;26.70;4.50;;;7.50;94.30;;;;;;5050561;28;20420;-78
2021/03/22 01:58:55;;;;;;;30.42;3.40;;;7.40;94.40;;;;;;5051943;28;20131;-80
2021/03/22 02:01:23;;;;;;;26.35;3.17;;;7.40;94.70;;;;;;5051864;28;20041;-77
2021/03/22 02:03:49;;;;;;;;;;;7.40;94.40;;;;;;5052384;28;20025;-78
2021/03/22 02:06:15;;;;;;;15.13;2.60;;;7.40;94.30;;;;;;5052614;28;20023;-78
2021/03/22 02:08:43;;;;;;;29.17;4.30;;;7.40;94.30;;;;;;5051426;28;20406;-78
2021/03/22 02:11:16;;;;;;;;;;;7.40;94.20;;;;;;5052105;28;20107;-78
2021/03/22 02:13:42;;;;;;;34.90;4.43;;;7.40;94.20;;;;;;5052194;28;19970;-78
2021/03/22 02:16:21;;;;;;;31.52;2.80;;;7.50;94.00;;;;;;5051977;28;20045;-78
2021/03/22 02:19:22;;;;;;;14.93;2.90;;;7.50;94.00;;;;;;5051931;28;20036;-79
2021/03/22 02:22:00;;;;;;;34.95;4.55;;;7.50;93.70;;;;;;5051182;28;20441;-79
2021/03/22 02:24:29;;;;;;;;;;;7.50;93.60;;;;;;5051233;28;20029;-79
2021/03/22 02:27:36;;;;;;;23.23;3.22;;;7.60;93.60;;;;;;5053233;28;19947;-79
2021/03/22 02:30:34;;;;;;;30.00;3.05;;;7.50;93.60;;;;;;5052227;28;20032;-79
2021/03/22 02:33:20;;;;;;;21.45;3.75;;;7.40;93.80;;;;;;5050205;28;20029;-78
2021/03/22 02:36:06;;;;;;;26.50;3.72;;;7.30;93.80;;;;;;5050657;28;20043;-79
2021/03/22 02:38:38;;;;;;;22.10;3.10;;;7.30;93.80;;;;;;5046268;28;20026;-77
2021/03/22 02:41:11;;;;;;;29.48;3.53;;;7.30;93.80;;;;;;5051562;28;20033;-78
2021/03/22 02:43:37;;;;;;;31.27;4.57;;;7.30;93.90;;;;;;5051372;28;20041;-78
2021/03/22 02:46:06;;;;;;;21.92;4.05;;;7.40;93.80;;;;;;5051487;28;20459;-78
2021/03/22 02:48:34;;;;;;;34.70;3.30;;;7.50;93.80;;;;;;5050190;28;20066;-78
2021/03/22 02:51:16;;;;;;;30.92;3.65;;;7.50;93.70;;;;;;5051939;28;20084;-79
2021/03/22 02:53:50;;;;;;;19.27;3.33;;;7.60;93.80;;;;;;5051840;28;20040;-78
2021/03/22 02:56:26;;;;;;;27.80;3.50;;;7.50;93.80;;;;;;5051808;28;20044;-78
2021/03/22 02:59:13;;;;;;;28.92;3.85;;;7.60;94.00;;;;;;5050354;28;20124;-79
2021/03/22 03:01:44;;;;;;;21.08;3.05;;;7.50;94.00;;;;;;5050246;28;20116;-79
2021/03/22 03:04:13;;;;;;;23.45;3.58;;;7.50;94.10;;;;;;5050273;28;20029;-78
2021/03/22 03:06:45;;;;;;;17.90;3.72;;;7.50;94.20;;;;;;5050151;28;20041;-79
2021/03/22 03:09:11;;;;;;;27.65;3.75;;;7.50;94.20;;;;;;5051531;28;20527;-79
2021/03/22 03:11:37;;;;;;;24.08;4.03;;;7.50;94.60;;;;;;5049932;28;20048;-78
2021/03/22 03:14:04;;;;;;;19.73;3.03;;;7.60;94.40;;;;;;5050895;28;20116;-77
2021/03/22 03:16:31;;;;;;;26.27;3.58;;;7.50;94.40;;;;;;5050988;28;20072;-78
2021/03/22 03:18:56;;;;;;;27.42;4.00;;;7.40;94.50;;;;;;5051052;28;20128;-78
2021/03/22 03:21:22;;;;;;;28.90;3.67;;;7.50;94.50;;;;;;5050665;28;20108;-78
2021/03/22 03:23:47;;;;;;;25.70;3.58;;;7.50;94.50;;;;;;5051229;28;20111;-80
2021/03/22 03:26:13;;;;;;;17.63;2.75;;;7.50;94.60;;;;;;5050661;28;20485;-80
2021/03/22 03:28:39;;;;;;;22.60;4.00;;;7.50;94.60;;;;;;5049610;28;20095;-78
2021/03/22 03:31:04;;;;;;;31.50;4.20;;;7.50;94.60;;;;;;5050679;28;20060;-78
2021/03/22 03:33:30;;;;;;;19.73;3.55;;;7.50;94.60;;;;;;5049469;28;20029;-80
2021/03/22 03:35:56;;;;;;;21.00;3.22;;;7.50;94.60;;;;;;5051234;28;20358;-78
2021/03/22 03:38:21;;;;;;;23.83;3.38;;;7.50;94.60;;;;;;5050491;28;20037;-79
2021/03/22 03:40:48;;;;;;;23.33;3.08;;;7.50;94.70;;;;;;5050483;28;20039;-79
2021/03/22 03:43:15;;;;;;;26.30;3.80;;;7.50;94.80;;;;;;5050538;28;20090;-80
2021/03/22 03:45:43;;;;;;;36.08;3.95;;;7.50;94.80;;;;;;5049230;28;20138;-79
2021/03/22 03:48:11;;;;;;;27.20;3.53;;;7.40;94.80;;;;;;5050992;28;20091;-78
2021/03/22 03:50:37;;;;;;;20.02;3.30;;;7.40;94.90;;;;;;5050500;28;20036;-78
2021/03/22 03:53:03;;;;;;;24.65;3.80;;;7.40;95.10;;;;;;5049385;28;20132;-79
2021/03/22 03:55:30;;;;;;;21.05;3.15;;;7.40;95.20;;;;;;5049342;28;20063;-79
2021/03/22 03:57:56;;;;;;;27.55;3.80;;;7.40;95.20;;;;;;5043365;28;20478;-78
2021/03/22 04:00:24;;;;;;;23.60;3.47;;;7.50;95.30;;;;;;5030047;28;20033;-79
2021/03/22 04:02:50;;;;;;;23.30;3.58;;;7.50;95.20;;;;;;5031668;28;20021;-79
2021/03/22 04:05:16;;;;;;;24.75;4.28;;;7.50;95.20;;;;;;5045909;28;20128;-79
2021/03/22 04:07:43;;;;;;;29.25;4.68;;;7.40;95.40;;;;;;5037174;28;20129;-79
2021/03/22 04:10:09;;;;;;;24.35;3.33;;;7.40;95.50;;;;;;5037401;28;20041;-79
2021/03/22 04:12:35;;;;;;;25.55;3.63;;;7.40;95.50;;;;;;5048984;28;20039;-78
2021/03/22 04:15:01;;;;;;;25.13;3.50;;;7.50;95.50;;;;;;5051478;28;20021;-78
2021/03/22 04:17:28;;;;;;;31.92;3.45;;;7.40;95.50;;;;;;5048370;28;20207;-77
2021/03/22 04:19:53;;;;;;;25.83;3.35;;;7.40;95.50;;;;;;5049747;28;20049;-77
2021/03/22 04:22:19;;;;;;;28.20;3.78;;;7.40;95.60;;;;;;5049649;28;20036;-78
2021/03/22 04:24:44;;;;;;;34.00;3.95;;;7.40;95.60;;;;;;5044593;28;20030;-78
2021/03/22 04:27:10;;;;;;;27.75;3.47;;;7.40;95.60;;;;;;5031237;28;20072;-78
2021/03/22 04:29:35;;;;;;;26.02;3.75;;;7.40;95.60;;;;;;5047983;28;20025;-79
2021/03/22 04:32:02;;;;;;;33.30;4.15;;;7.30;95.70;;;;;;5047318;28;20106;-82
2021/03/22 04:34:28;;;;;;;22.25;3.40;;;7.30;95.70;;;;;;5049558;28;20668;-78
2021/03/22 04:36:54;;;;;;;22.70;3.75;;;7.30;95.70;;;;;;5044190;28;20030;-79
2021/03/22 04:39:19;;;;;;;34.00;3.97;;;7.40;95.80;;;;;;5028566;28;20045;-79
2021/03/22 04:41:45;;;;;;;26.20;4.82;;;7.40;95.80;;;;;;5050051;28;20052;-78
2021/03/22 04:44:10;;;;;;;28.48;3.95;;;7.30;95.90;;;;;;5049436;28;20041;-78
2021/03/22 04:46:36;;;;;;;31.05;5.47;;;7.30;95.90;;;;;;5047478;28;20037;-79
2021/03/22 04:49:02;;;;;;;24.38;3.53;;;7.20;96.00;;;;;;5048472;28;20332;-79
2021/03/22 04:51:29;;;;;;;25.55;3.70;;;7.20;96.00;;;;;;5048219;28;20477;-78
2021/03/22 04:53:56;;;;;;;21.27;3.47;;;7.30;96.10;;;;;;5050098;28;20028;-78
2021/03/22 04:56:23;;;;;;;29.85;3.63;;;7.40;96.00;;;;;;5048668;28;20056;-76
2021/03/22 04:58:49;;;;;;;20.17;3.38;;;7.40;96.00;;;;;;5049454;28;20051;-79
2021/03/22 05:01:15;;;;;;;32.60;5.07;;;7.40;95.90;;;;;;5049380;28;20037;-78
2021/03/22 05:03:41;;;;;;;28.90;3.83;;;7.40;96.00;;;;;;5049291;28;20186;-78
2021/03/22 05:06:06;;;;;;;19.85;3.22;;;7.40;96.00;;;;;;5050897;28;20124;-81
2021/03/22 05:08:32;;;;;;;23.35;3.53;;;7.40;96.10;;;;;;5048560;28;20030;-79
2021/03/22 05:10:59;;;;;;;25.00;3.88;;;7.40;96.10;;;;;;5049790;28;20037;-79
2021/03/22 05:13:26;;;;;;;17.63;3.00;;;7.40;96.10;;;;;;5048302;28;20529;-78
2021/03/22 05:15:53;;;;;;;23.80;3.53;;;7.40;96.10;;;;;;5049731;28;20048;-79
2021/03/22 05:18:20;;;;;;;14.98;3.05;;;7.40;96.00;;;;;;5049180;28;20033;-79
2021/03/22 05:20:52;;;;;;;21.00;3.87;;;7.40;95.90;;;;;;5049708;28;20134;-79
2021/03/22 05:23:21;;;;;;;20.40;2.85;;;7.40;96.00;;;;;;5049337;28;20302;-81
2021/03/22 05:25:48;;;;;;;27.50;2.97;;;7.30;95.50;;;;;;5048941;28;20033;-80
2021/03/22 05:28:14;;;;;;;22.67;3.33;;;7.30;95.20;;;;;;5049128;28;20119;-80
2021/03/22 05:30:41;;;;;;;15.27;2.60;;;7.40;95.10;;;;;;5052919;28;20033;-80
2021/03/22 05:33:11;;;;;;;21.75;2.72;;;7.20;94.60;;;;;;5053706;28;20032;-77
2021/03/22 05:35:38;;;;;;;20.52;3.83;;;7.30;94.70;;;;;;5052047;28;20108;-79
2021/03/22 05:38:05;;;;;;;20.40;3.03;;;7.20;94.50;;;;;;5051529;28;20047;-80
2021/03/22 05:40:39;;;;;;;16.00;3.40;;;7.20;94.50;;;;;;5052092;28;20040;-80
2021/03/22 05:43:07;;;;;;;32.58;3.83;;;7.30;94.50;;;;;;5051713;28;20032;-79
2021/03/22 05:45:47;;;;;;;20.00;3.10;;;7.40;94.60;;;;;;5052482;28;20044;-79
2021/03/22 05:48:22;;;;;;;26.10;3.67;;;7.40;94.80;;;;;;5053326;28;20048;-80
2021/03/22 05:51:12;;;;;;;28.10;3.88;;;7.40;94.90;;;;;;5052941;28;20128;-79
2021/03/22 05:54:08;;;;;;;20.05;3.25;;;7.40;95.00;;;;;;5051236;28;20033;-79
2021/03/22 05:56:45;;;;;;;27.90;5.38;;;7.50;95.10;;;;;;5052627;28;20040;-79
2021/03/22 05:59:20;;;;;;;24.42;4.40;;;7.40;95.30;;;;;;5051985;28;20115;-80
2021/03/22 06:01:50;;;;;;;26.17;2.97;;;7.40;95.30;;;;;;5051451;28;20025;-78
2021/03/22 06:04:30;;;;;;;26.45;3.78;;;7.60;95.30;;;;;;5051414;28;20047;-77
2021/03/22 06:06:57;;;;;;;19.83;3.42;;;7.60;95.40;;;;;;5052028;28;20394;-79
2021/03/22 06:09:23;;;;;;;22.55;3.78;;;7.60;95.40;;;;;;5051040;28;20035;-79
2021/03/22 06:12:07;;;;;;;25.55;3.33;;;7.60;95.40;;;;;;5052737;28;20465;-78
2021/03/22 06:14:43;;;;;;;29.05;4.00;;;7.60;95.50;;;;;;5050545;28;20447;-78
2021/03/22 06:17:25;;;;;;;31.15;4.57;;;7.60;95.60;;;;;;5034901;28;20033;-78
2021/03/22 06:19:55;;;;;;;38.00;4.25;;;7.70;95.70;;;;;;5045044;28;20037;-78
2021/03/22 06:22:25;;;;;;;21.02;3.75;;;7.60;95.80;;;;;;5051822;28;20037;-78
2021/03/22 06:24:55;;;;;;;26.83;4.57;;;7.70;95.80;;;;;;5050820;28;20119;-77
2021/03/22 06:27:21;;;;;;;23.90;4.00;;;7.70;95.80;;;;;;5051291;28;20021;-80
2021/03/22 06:29:47;;;;;;;27.98;4.70;;;7.70;96.10;;;;;;5052052;28;20347;-77
2021/03/22 06:32:15;;;;;;;20.85;3.50;;;7.70;95.90;;;;;;5035674;28;20044;-78
2021/03/22 06:34:53;;;;;;;24.00;4.07;;;7.80;95.90;;;;;;5043557;28;20037;-77
2021/03/22 06:37:30;;;;;;;27.08;4.00;;;7.80;95.80;;;;;;5051245;28;20045;-77
2021/03/22 06:40:11;;;;;;;29.35;4.22;;;7.80;95.90;;;;;;5050620;28;20021;-75
2021/03/22 06:42:38;;;;;;;31.88;4.70;;;7.90;95.70;;;;;;5049960;28;20040;-74
2021/03/22 06:45:25;;;;;;;18.75;4.03;;;7.90;95.70;;;;;;5052735;28;20106;-76
2021/03/22 06:48:06;;;;;;;23.48;3.75;;;7.90;95.50;;;;;;5053482;28;20037;-77
2021/03/22 06:50:31;;;;;;;35.40;5.13;;;7.90;95.50;;;;;;5052990;28;20048;-79
2021/03/22 06:52:57;;;;;;;20.83;3.95;;;7.90;95.50;;;;;;5053047;28;20632;-78
2021/03/22 06:55:29;;;;;;;25.60;4.28;;;7.90;95.40;;;;;;5052670;28;20106;-80
2021/03/22 06:57:54;;;;;;;26.55;4.30;;;7.90;95.30;;;;;;5044048;28;20033;-79
2021/03/22 07:00:29;;;;;;;21.25;3.92;;;7.90;95.30;;;;;;5048026;28;20029;-78
2021/03/22 07:03:21;;;;;;;21.13;3.75;;;7.90;95.30;;;;;;5034149;28;20086;-81
2021/03/22 07:05:46;;;;;;;26.17;3.80;;;7.80;95.30;;;;;;5049340;28;20037;-81
2021/03/22 07:08:17;;;;;;;26.38;4.25;;;7.90;95.30;;;;;;5032302;28;20528;-83
2021/03/22 07:10:54;;;;;;;18.83;4.15;;;7.90;95.20;;;;;;5047814;28;20037;-83
2021/03/22 07:13:31;;;;;;;18.33;3.45;;;8.00;95.20;;;;;;5049183;28;20423;-82
2021/03/22 07:16:12;;;;;;;18.77;4.10;;;8.00;95.40;;;;;;5031244;28;20063;-82
2021/03/22 07:18:38;;;;;;;35.85;4.72;;;7.90;95.20;;;;;;5047786;28;20079;-83
2021/03/22 07:21:11;;;;;;;23.80;4.88;;;7.90;95.30;;;;;;5033533;28;20064;-83
2021/03/22 07:23:43;;;;;;;23.77;5.28;;;8.00;95.30;;;;;;5032065;28;20033;-84
2021/03/22 07:26:21;;;;;;;20.15;4.22;;;7.90;95.20;;;;;;5031572;28;20091;-82
2021/03/22 07:28:47;;;;;;;;;;;7.90;95.20;;;;;;5034063;28;20053;-85
2021/03/22 07:31:45;;;;;;;21.45;3.90;;;8.00;95.20;;;;;;5025380;28;20633;-82
2021/03/22 07:34:17;;;;;;;18.80;3.97;;;8.00;95.20;;;;;;5014027;28;20503;-81
2021/03/22 07:37:06;;;;;;;26.25;4.35;;;8.10;95.10;;;;;;5014528;28;20030;-85
2021/03/22 07:39:46;;;;;;;19.83;4.47;;;8.10;94.80;;;;;;5029627;28;20375;-83
2021/03/22 07:42:40;;;;;;;35.08;5.00;;;8.10;94.60;;;;;;5032344;28;20025;-81
2021/03/22 07:45:12;;;;;;;22.23;4.35;;;8.20;94.50;;;;;;5026028;28;20038;-81
2021/03/22 07:47:58;;;;;;;25.38;6.38;;;8.30;94.40;;;;;;5029620;28;20052;-80
2021/03/22 07:50:46;;;;;;;17.33;3.88;;;8.30;94.40;;;;;;5029701;28;20060;-82
2021/03/22 07:53:23;;;;;;;20.60;4.60;;;8.20;94.50;;;;;;5025818;28;20387;-78
2021/03/22 07:55:52;;;;;;;40.88;5.00;;;8.30;94.70;;;;;;5028725;28;20060;-80
2021/03/22 07:58:37;;;;;;;23.92;5.13;;;8.50;94.40;;;;;;5028954;28;20029;-80
2021/03/22 08:01:13;;;;;;;18.20;3.90;;;8.40;94.30;;;;;;5025540;28;20046;-79
2021/03/22 08:04:00;;;;;;;16.58;4.43;;;8.50;94.30;;;;;;5029016;28;20060;-83
2021/03/22 08:06:32;;;;;;;20.57;4.33;;;8.40;94.10;;;;;;5026966;28;20150;-79
2021/03/22 08:09:19;;;;;;;19.00;4.00;;;8.40;94.10;;;;;;5010715;28;20026;-82
2021/03/22 08:12:14;;;;;;;19.93;3.90;;;8.50;94.00;;;;;;5045359;28;20061;-79
2021/03/22 08:14:42;;;;;;;17.88;5.82;;;8.60;93.80;;;;;;5025090;28;20267;-79
2021/03/22 08:17:19;;;;;;;21.15;4.35;;;8.80;93.60;;;;;;5030123;28;20083;-77
2021/03/22 08:20:12;;;;;;;21.45;4.03;;;9.00;93.60;;;;;;5030409;28;20041;-80
2021/03/22 08:22:47;;;;;;;27.75;4.43;;;9.30;93.40;;;;;;5029353;28;20127;-77
2021/03/22 08:25:34;;;;;;;16.90;3.65;;;9.40;92.90;;;;;;5044848;28;20036;-81
2021/03/22 08:28:15;;;;;;;18.38;3.53;;;9.40;92.20;;;;;;5023355;28;20112;-78
2021/03/22 08:31:08;;;;;;;25.90;4.75;;;9.40;92.20;;;;;;5013639;28;20034;-78
2021/03/22 08:33:44;;;;;;;17.65;3.50;;;9.40;92.20;;;;;;5044806;28;20032;-80
2021/03/22 08:36:47;;;;;;;17.63;3.88;;;9.40;92.10;;;;;;5031342;28;20033;-81
2021/03/22 08:39:27;;;;;;;22.15;3.92;;;9.30;91.90;;;;;;5045632;28;20477;-79
2021/03/22 08:42:16;;;;;;;24.88;3.95;;;9.40;92.00;;;;;;5044609;28;20045;-76
2021/03/22 08:45:00;;;;;;;16.58;3.40;;;9.50;92.00;;;;;;5044766;28;20033;-78
2021/03/22 08:47:41;;;;;;;21.98;4.03;;;9.60;91.70;;;;;;5028917;28;20056;-77
2021/03/22 08:50:14;;;;;;;14.85;3.88;;;9.70;91.60;;;;;;5027046;28;20041;-79
2021/03/22 08:52:47;;;;;;;34.95;4.60;;;9.90;91.50;;;;;;5017239;28;20099;-78
2021/03/22 08:55:17;;;;;;;14.35;3.75;;;10.00;90.70;;;;;;5016321;28;20037;-80
2021/03/22 08:57:52;;;;;;;19.23;4.07;;;10.00;90.50;;;;;;5028690;28;20057;-77
2021/03/22 09:00:26;;;;;;;20.08;4.63;;;10.00;90.50;;;;;;5027936;28;20022;-77
2021/03/22 09:03:21;;;;;;;12.85;3.92;;;10.10;90.60;;;;;;5031300;28;20030;-76
2021/03/22 09:06:05;;;;;;;11.60;3.80;;;10.10;90.20;;;;;;5028887;28;20187;-75
2021/03/22 09:08:36;;;;;;;17.27;3.55;;;10.30;90.10;;;;;;5028362;28;20037;-76
2021/03/22 09:11:25;;;;;;;18.80;4.68;;;11.00;90.00;;;;;;5013466;28;20124;-74
2021/03/22 09:14:16;;;;;;;18.88;3.95;;;12.20;85.80;;;;;;5022002;28;20464;-74
2021/03/22 09:16:48;;;;;;;20.58;3.80;;;12.20;85.00;;;;;;5023262;28;20452;-74
2021/03/22 09:19:14;;;;;;;13.65;3.55;;;12.10;82.90;;;;;;5032441;28;20064;-75
2021/03/22 09:21:44;;;;;;;18.05;4.40;;;12.10;83.50;;;;;;5029331;28;20057;-76
2021/03/22 09:24:38;;;;;;;10.20;3.45;;;12.50;83.20;;;;;;5013367;28;20100;-77
2021/03/22 09:27:24;;;;;;;12.45;3.50;;;13.40;80.40;;;;;;5048649;28;20483;-78
2021/03/22 09:30:02;;;;;;;12.75;2.97;;;13.70;76.30;;;;;;5043626;28;20111;-77
2021/03/22 09:32:32;;;;;;;10.75;2.28;;;14.20;74.00;;;;;;5031014;28;20033;-79
2021/03/22 09:34:59;;;;;;;14.75;3.50;;;15.80;73.20;;;;;;5028139;28;20476;-80
2021/03/22 09:37:57;;;;;;;19.80;5.78;;;16.30;68.00;;;;;;5030833;28;20371;-79
2021/03/22 09:40:23;;;;;;;9.57;3.15;;;16.00;66.90;;;;;;5032620;28;20090;-80
2021/03/22 09:43:10;;;;;;;14.10;3.83;;;15.90;66.40;;;;;;5027471;28;20116;-80
2021/03/22 09:45:54;;;;;;;10.80;3.67;;;16.90;64.00;;;;;;5013950;28;20063;-77
2021/03/22 09:48:36;;;;;;;11.27;2.55;;;16.90;61.90;;;;;;5030732;28;20017;-77
2021/03/22 09:51:04;;;;;;;7.90;2.33;;;17.90;58.50;;;;;;5013153;28;20040;-77
2021/03/22 09:53:52;;;;;;;13.75;3.50;;;18.60;55.80;;;;;;5025890;28;20081;-79
2021/03/22 09:56:40;;;;;;;11.00;2.63;;;19.00;54.70;;;;;;5028783;28;20525;-78
2021/03/22 09:59:25;;;;;;;9.23;3.00;;;19.30;52.30;;;;;;5016022;28;20038;-78
2021/03/22 10:01:56;;;;;;;8.48;2.60;;;18.60;51.30;;;;;;5020712;28;20150;-77
2021/03/22 10:04:29;;;;;;;8.57;2.83;;;19.00;52.10;;;;;;5030841;28;20106;-82
2021/03/22 10:07:30;;;;;;;7.28;2.70;;;19.80;50.40;;;;;;5027345;28;20048;-79
2021/03/22 10:10:02;;;;;;;9.40;2.42;;;20.70;48.80;;;;;;5004583;28;20064;-79
2021/03/22 10:12:39;;;;;;;9.68;3.38;;;21.40;44.80;;;;;;5030131;28;20086;-77
2021/03/22 10:15:09;;;;;;;10.85;2.92;;;20.90;44.70;;;;;;5012936;28;20387;-79
2021/03/22 10:17:58;;;;;;;8.65;2.20;;;21.90;43.40;;;;;;5013574;28;20376;-82
2021/03/22 10:20:46;;;;;;;10.63;2.85;;;21.40;43.70;;;;;;5020279;28;20046;-79
2021/03/22 10:23:21;;;;;;;11.43;4.18;;;20.10;45.90;;;;;;5024920;28;20096;-82
2021/03/22 10:25:49;;;;;;;10.73;3.05;;;18.80;46.30;;;;;;5032036;28;20108;-79
2021/03/22 10:28:21;;;;;;;7.82;2.88;;;17.80;47.40;;;;;;5027804;28;20334;-79
2021/03/22 10:31:00;;;;;;;17.33;2.90;;;17.20;48.10;;;;;;5011894;28;20105;-80
2021/03/22 10:33:26;;;;;;;9.18;2.70;;;17.70;48.70;;;;;;5012043;28;20040;-81
2021/03/22 10:35:56;;;;;;;15.90;2.97;;;18.60;47.40;;;;;;5048446;28;20064;-77
2021/03/22 10:38:32;;;;;;;9.52;3.13;;;19.80;46.50;;;;;;5031649;28;20045;-78
2021/03/22 10:41:00;;;;;;;12.75;2.95;;;21.40;45.00;;;;;;5029222;28;20107;-76
2021/03/22 10:43:31;;;;;;;6.25;2.40;;;22.20;42.00;;;;;;5031310;28;20347;-79
2021/03/22 10:46:18;;;;;;;8.82;2.47;;;21.20;40.70;;;;;;5024989;28;20054;-76
2021/03/22 10:48:46;;;;;;;7.73;2.13;;;21.70;40.10;;;;;;5014528;28;20056;-77
2021/03/22 10:51:18;;;;;;;12.45;2.90;;;22.70;39.20;;;;;;5032853;28;20720;-80
2021/03/22 10:54:02;;;;;;;7.80;2.40;;;23.30;38.10;;;;;;5011424;28;20042;-77
2021/03/22 10:56:38;;;;;;;14.00;5.63;;;23.20;36.90;;;;;;5024671;28;20041;-77
2021/03/22 10:59:12;;;;;;;12.80;3.33;;;22.20;37.40;;;;;;5011190;28;20034;-76
2021/03/22 11:01:40;;;;;;;11.40;2.80;;;20.70;38.60;;;;;;5010972;28;20129;-77
2021/03/22 11:04:19;;;;;;;8.82;2.85;;;19.30;41.30;;;;;;5017310;28;20052;-76
2021/03/22 11:06:46;;;;;;;8.55;2.97;;;17.70;42.50;;;;;;5030611;28;20034;-76
2021/03/22 11:09:22;;;;;;;11.60;2.63;;;18.20;44.00;;;;;;5032420;28;20033;-77
2021/03/22 11:11:49;;;;;;;7.65;2.58;;;19.00;42.20;;;;;;5031227;28;20125;-76
2021/03/22 11:14:18;;;;;;;11.88;2.92;;;20.30;42.30;;;;;;5025554;28;20341;-75
2021/03/22 11:16:44;;;;;;;11.02;2.90;;;21.50;40.90;;;;;;5021762;28;20044;-76
2021/03/22 11:19:13;;;;;;;9.60;2.80;;;22.00;39.00;;;;;;5021844;28;20033;-76
2021/03/22 11:21:39;;;;;;;6.40;2.28;;;22.10;37.60;;;;;;5010533;28;20033;-78
2021/03/22 11:24:14;;;;;;;9.25;2.65;;;20.20;38.40;;;;;;5012416;28;20028;-77
2021/03/22 11:26:54;;;;;;;7.00;2.30;;;19.00;42.20;;;;;;5029294;28;20041;-78
2021/03/22 11:29:24;;;;;;;6.13;2.13;;;18.60;42.90;;;;;;5025812;28;20041;-77
2021/03/22 11:31:57;;;;;;;6.60;2.10;;;18.90;44.40;;;;;;5025745;28;20026;-79
2021/03/22 11:34:40;;;;;;;9.57;2.38;;;19.70;43.00;;;;;;5029545;28;20442;-79
2021/03/22 11:37:13;;;;;;;11.13;2.33;;;20.00;42.10;;;;;;5030886;28;20036;-76
2021/03/22 11:39:38;;;;;;;8.18;2.65;;;19.20;41.70;;;;;;5027584;28;20369;-79
2021/03/22 11:42:19;;;;;;;7.15;2.65;;;18.00;42.50;;;;;;5011243;28;20166;-83
2021/03/22 11:44:46;;;;;;;9.13;2.30;;;18.10;43.80;;;;;;5045848;28;20040;-78
2021/03/22 11:47:44;;;;;;;8.07;2.40;;;17.90;43.40;;;;;;5046015;28;20124;-78
2021/03/22 11:50:25;;;;;;;11.38;2.65;;;17.80;43.70;;;;;;5014615;28;20072;-80
2021/03/22 11:53:03;;;;;;;8.40;2.70;;;16.50;45.10;;;;;;5023611;28;20047;-80
2021/03/22 11:55:41;;;;;;;6.97;2.55;;;16.40;46.00;;;;;;5032808;28;20124;-87
2021/03/22 11:58:32;;;;;;;6.90;1.92;;;15.90;46.40;;;;;;5030479;28;20073;-87
2021/03/22 12:01:15;;;;;;;7.72;2.70;;;15.60;47.40;;;;;;5019582;28;20138;-77
2021/03/22 12:03:41;;;;;;;9.10;2.40;;;15.00;49.10;;;;;;5025471;28;20473;-76
2021/03/22 12:06:20;;;;;;;8.90;2.80;;;15.30;49.20;;;;;;5010418;28;20030;-80
2021/03/22 12:08:48;;;;;;;7.47;2.47;;;15.10;49.50;;;;;;5030005;28;20025;-78
2021/03/22 12:11:23;;;;;;;;;;;14.70;50.30;;;;;;5029113;28;20034;-78
2021/03/22 12:13:52;;;;;;;11.77;2.30;;;14.70;50.30;;;;;;5022713;28;19924;-79
2021/03/22 12:16:23;;;;;;;6.90;2.50;;;14.60;50.80;;;;;;5029603;28;20049;-80
2021/03/22 12:18:51;;;;;;;12.25;2.80;;;14.60;51.00;;;;;;5029602;28;20057;-79
2021/03/22 12:21:17;;;;;;;;;;;14.60;50.30;;;;;;5029042;28;20033;-79
2021/03/22 12:23:44;;;;;;;10.02;2.80;;;14.70;49.70;;;;;;5030971;28;20366;-80
2021/03/22 12:26:17;;;;;;;9.45;2.60;;;14.90;50.20;;;;;;5028925;28;20225;-78
2021/03/22 12:28:54;;;;;;;7.97;2.28;;;14.50;49.90;;;;;;5032495;28;20121;-79
2021/03/22 12:31:30;;;;;;;6.10;2.42;;;14.40;50.90;;;;;;5009392;28;20523;-79
2021/03/22 12:33:57;;;;;;;12.18;2.88;;;14.10;51.40;;;;;;5009396;28;20037;-78
2021/03/22 12:36:24;;;;;;;14.60;2.63;;;14.00;51.80;;;;;;5010141;28;20106;-79
2021/03/22 12:38:49;;;;;;;7.10;2.72;;;14.10;51.70;;;;;;5046272;28;20448;-80
2021/03/22 12:41:35;;;;;;;10.27;3.75;;;13.80;51.80;;;;;;5029222;28;20084;-81
2021/03/22 12:44:03;;;;;;;5.40;2.17;;;13.70;53.00;;;;;;5029198;28;20041;-78
2021/03/22 12:46:29;;;;;;;5.43;1.73;;;13.70;53.10;;;;;;5018991;28;20062;-77
2021/03/22 12:48:56;;;;;;;10.00;2.53;;;13.60;53.60;;;;;;5014885;28;20494;-80
2021/03/22 12:51:21;;;;;;;6.38;1.90;;;13.50;53.90;;;;;;5044695;28;20033;-80
2021/03/22 12:53:47;;;;;;;11.27;2.90;;;13.70;54.20;;;;;;5031508;28;20075;-78
2021/03/22 12:56:14;;;;;;;6.47;2.50;;;14.10;54.30;;;;;;5028963;28;20041;-81
2021/03/22 12:58:41;;;;;;;6.78;2.33;;;14.10;52.80;;;;;;5044664;28;20083;-80
2021/03/22 13:01:07;;;;;;;12.07;3.10;;;14.20;51.30;;;;;;5029337;28;20033;-81
2021/03/22 13:03:33;;;;;;;5.50;1.83;;;14.30;51.30;;;;;;5028619;28;20034;-81
2021/03/22 13:05:59;;;;;;;5.90;1.75;;;14.00;54.00;;;;;;5030591;28;20367;-85
2021/03/22 13:08:28;;;;;;;4.80;2.13;;;13.90;55.10;;;;;;5028862;28;20466;-77
2021/03/22 13:10:56;;;;;;;8.88;2.47;;;13.60;56.00;;;;;;5013957;28;20391;-78
2021/03/22 13:13:22;;;;;;;7.87;2.13;;;13.30;57.20;;;;;;5008954;28;20037;-77
2021/03/22 13:15:50;;;;;;;7.82;1.80;;;13.20;57.50;;;;;;5013826;28;20041;-80
2021/03/22 13:18:45;;;;;;;9.02;2.20;;;13.20;57.30;;;;;;5046316;28;20221;-81